Time;durP1;ratioP1;P1;durP2;ratioP2;P2;SDS_P1;SDS_P2;PMS_P1;PMS_P2;Temp;Humidity;BMP_temperature;BMP_pressure;BME280_temperature;BME280_humidity;BME280_pressure;Samples;Min_cycle;Max_cycle;Signal;HPM_P1;HPM_P2
2024/01/25 00:00:06;;;;;;;20.73;5.17;;;9.40;99.90;;;;;;5072574;28;20566;-69
2024/01/25 00:02:33;;;;;;;16.43;4.80;;;9.40;99.90;;;;;;5073385;28;20533;-69
2024/01/25 00:04:59;;;;;;;23.07;6.27;;;9.40;99.90;;;;;;5073469;28;20436;-69
2024/01/25 00:07:24;;;;;;;16.47;4.00;;;9.40;99.90;;;;;;5071861;28;20423;-69
2024/01/25 00:09:50;;;;;;;20.70;4.90;;;9.40;99.90;;;;;;5073337;28;20181;-69
2024/01/25 00:12:15;;;;;;;25.17;4.70;;;9.40;99.90;;;;;;5073417;28;20200;-69
2024/01/25 00:14:41;;;;;;;21.60;5.93;;;9.40;99.90;;;;;;5073135;28;20228;-70
2024/01/25 00:17:06;;;;;;;21.93;5.23;;;9.40;99.90;;;;;;5073091;28;20582;-70
2024/01/25 00:19:34;;;;;;;12.37;3.37;;;9.40;99.90;;;;;;5073286;28;20166;-69
2024/01/25 00:21:59;;;;;;;26.50;6.43;;;9.40;99.90;;;;;;5073142;28;20166;-70
2024/01/25 00:24:26;;;;;;;18.67;6.50;;;9.50;99.90;;;;;;5072848;28;20529;-69
2024/01/25 00:26:51;;;;;;;18.67;4.47;;;9.50;99.90;;;;;;5072308;28;20219;-70
2024/01/25 00:29:17;;;;;;;16.80;5.03;;;9.50;99.90;;;;;;5072912;28;20499;-70
2024/01/25 00:31:42;;;;;;;29.43;4.90;;;9.50;99.90;;;;;;5072831;28;20169;-70
2024/01/25 00:34:08;;;;;;;15.60;3.80;;;9.50;99.90;;;;;;5072709;28;20717;-70
2024/01/25 00:36:34;;;;;;;17.30;4.17;;;9.50;99.90;;;;;;5072491;28;20158;-70
2024/01/25 00:38:59;;;;;;;24.40;4.57;;;9.50;99.90;;;;;;5072907;28;20173;-70
2024/01/25 00:41:25;;;;;;;10.47;3.80;;;9.60;99.90;;;;;;5072881;28;20164;-70
2024/01/25 00:43:51;;;;;;;25.50;4.50;;;9.60;99.90;;;;;;5071401;28;20269;-70
2024/01/25 00:46:17;;;;;;;21.47;4.80;;;9.50;99.90;;;;;;5072410;28;20244;-70
2024/01/25 00:48:43;;;;;;;19.27;4.70;;;9.40;99.90;;;;;;5072712;28;20170;-73
2024/01/25 00:51:14;;;;;;;13.30;4.80;;;9.40;99.90;;;;;;5071482;28;20174;-72
2024/01/25 00:53:40;;;;;;;27.90;5.20;;;9.40;99.90;;;;;;5071388;28;20739;-71
2024/01/25 00:56:06;;;;;;;13.80;4.47;;;9.40;99.90;;;;;;5072260;28;20433;-73
2024/01/25 00:58:32;;;;;;;14.20;4.50;;;9.30;99.90;;;;;;5072421;28;20170;-73
2024/01/25 01:00:58;;;;;;;17.37;4.30;;;9.30;99.90;;;;;;5072450;28;20404;-72
2024/01/25 01:03:24;;;;;;;17.63;4.87;;;9.30;99.90;;;;;;5071891;28;20574;-72
2024/01/25 01:05:49;;;;;;;18.33;5.07;;;9.30;99.90;;;;;;5072078;28;20205;-71
2024/01/25 01:08:15;;;;;;;22.17;4.90;;;9.30;99.90;;;;;;5071018;28;20179;-72
2024/01/25 01:10:40;;;;;;;28.13;5.50;;;9.20;99.90;;;;;;5072207;28;20166;-72
2024/01/25 01:13:06;;;;;;;19.90;4.47;;;9.10;99.90;;;;;;5072134;28;20174;-72
2024/01/25 01:15:32;;;;;;;19.70;5.93;;;9.00;99.90;;;;;;5072191;28;20213;-71
2024/01/25 01:17:57;;;;;;;16.87;3.53;;;9.00;99.90;;;;;;5072031;28;20166;-71
2024/01/25 01:20:23;;;;;;;17.90;5.13;;;8.90;99.90;;;;;;5072205;28;20178;-72
2024/01/25 01:22:49;;;;;;;19.40;3.73;;;8.80;99.90;;;;;;5072113;28;20177;-72
2024/01/25 01:25:14;;;;;;;18.23;4.27;;;8.70;99.90;;;;;;5071861;28;20412;-72
2024/01/25 01:27:40;;;;;;;22.00;5.50;;;8.70;99.90;;;;;;5071776;28;20633;-71
2024/01/25 01:30:08;;;;;;;36.07;5.37;;;8.60;99.90;;;;;;5072130;28;20275;-72
2024/01/25 01:32:33;;;;;;;19.80;4.37;;;8.60;99.90;;;;;;5071823;28;20240;-72
2024/01/25 01:34:59;;;;;;;33.00;5.37;;;8.50;99.90;;;;;;5071824;28;20515;-72
2024/01/25 01:37:25;;;;;;;23.70;6.60;;;8.50;99.90;;;;;;5071754;28;20166;-72
2024/01/25 01:39:50;;;;;;;18.40;3.73;;;8.40;99.90;;;;;;5071987;28;20177;-72
2024/01/25 01:42:16;;;;;;;19.57;5.37;;;8.40;99.90;;;;;;5071901;28;20167;-72
2024/01/25 01:44:41;;;;;;;16.83;4.10;;;8.40;99.90;;;;;;5070538;28;20866;-72
2024/01/25 01:47:07;;;;;;;27.37;4.77;;;8.30;99.90;;;;;;5071562;28;20502;-72
2024/01/25 01:49:33;;;;;;;26.57;4.90;;;8.30;99.90;;;;;;5071715;28;20637;-73
2024/01/25 01:51:59;;;;;;;20.63;3.20;;;8.20;99.90;;;;;;5072504;28;20174;-73
2024/01/25 01:54:25;;;;;;;25.47;6.23;;;8.20;99.90;;;;;;5071471;28;20676;-70
2024/01/25 01:56:51;;;;;;;25.47;4.33;;;8.10;99.90;;;;;;5071331;28;20401;-71
2024/01/25 01:59:17;;;;;;;15.43;4.20;;;8.10;99.90;;;;;;5071563;28;20741;-71
2024/01/25 02:01:42;;;;;;;22.13;4.60;;;8.10;99.90;;;;;;5071605;28;20392;-71
2024/01/25 02:04:08;;;;;;;28.47;4.67;;;8.10;99.90;;;;;;5071420;28;20189;-71
2024/01/25 02:06:34;;;;;;;21.73;4.43;;;8.10;99.90;;;;;;5069978;28;20196;-71
2024/01/25 02:09:00;;;;;;;12.50;4.00;;;8.00;99.90;;;;;;5071477;28;20174;-71
2024/01/25 02:11:26;;;;;;;22.80;4.30;;;7.90;99.90;;;;;;5070451;28;20970;-71
2024/01/25 02:13:51;;;;;;;31.33;6.73;;;7.90;99.90;;;;;;5071119;28;20220;-71
2024/01/25 02:16:20;;;;;;;17.27;5.50;;;7.90;99.90;;;;;;5074167;28;20424;-71
2024/01/25 02:18:47;;;;;;;28.93;4.80;;;7.90;99.90;;;;;;5075419;28;20190;-72
2024/01/25 02:21:12;;;;;;;27.20;3.97;;;7.90;99.90;;;;;;5074094;28;20949;-72
2024/01/25 02:23:38;;;;;;;23.57;4.63;;;7.90;99.90;;;;;;5075252;28;20446;-72
2024/01/25 02:26:04;;;;;;;25.73;4.90;;;7.80;99.90;;;;;;5075130;28;20197;-71
2024/01/25 02:28:29;;;;;;;20.23;5.03;;;7.80;99.90;;;;;;5075257;28;20173;-71
2024/01/25 02:30:55;;;;;;;17.40;4.60;;;7.80;99.90;;;;;;5075177;28;20177;-71
2024/01/25 02:33:20;;;;;;;29.03;5.47;;;7.90;99.90;;;;;;5075244;28;20194;-71
2024/01/25 02:35:46;;;;;;;19.03;4.17;;;7.90;99.90;;;;;;5073667;28;20211;-71
2024/01/25 02:38:11;;;;;;;21.27;4.67;;;8.00;99.90;;;;;;5074896;28;20166;-72
2024/01/25 02:40:37;;;;;;;10.97;5.50;;;8.10;99.90;;;;;;5074840;28;20243;-70
2024/01/25 02:43:02;;;;;;;22.17;4.20;;;8.10;99.90;;;;;;5075028;28;20166;-71
2024/01/25 02:45:28;;;;;;;18.53;4.60;;;8.10;99.90;;;;;;5074850;28;20186;-71
2024/01/25 02:47:53;;;;;;;18.77;4.20;;;8.20;99.90;;;;;;5074614;28;20212;-70
2024/01/25 02:50:19;;;;;;;25.80;4.30;;;8.20;99.90;;;;;;5075098;28;20633;-72
2024/01/25 02:52:45;;;;;;;21.37;4.97;;;8.30;99.90;;;;;;5073485;28;20166;-71
2024/01/25 02:55:10;;;;;;;15.07;5.63;;;8.30;99.90;;;;;;5073548;28;20721;-72
2024/01/25 02:57:36;;;;;;;16.57;5.50;;;8.20;99.90;;;;;;5073226;28;20184;-72
2024/01/25 03:00:01;;;;;;;26.87;6.53;;;8.30;99.90;;;;;;5074758;28;20162;-73
2024/01/25 03:02:27;;;;;;;24.43;4.60;;;8.20;99.90;;;;;;5074509;28;20537;-72
2024/01/25 03:04:52;;;;;;;23.20;5.60;;;8.10;99.90;;;;;;5074492;28;20187;-72
2024/01/25 03:07:18;;;;;;;16.17;3.63;;;8.10;99.90;;;;;;5073908;28;20541;-72
2024/01/25 03:09:43;;;;;;;27.87;5.10;;;8.10;99.90;;;;;;5074602;28;20166;-71
2024/01/25 03:12:09;;;;;;;17.10;4.40;;;8.00;99.90;;;;;;5074614;28;20171;-70
2024/01/25 03:14:35;;;;;;;25.13;4.63;;;7.90;99.90;;;;;;5072993;28;20209;-71
2024/01/25 03:17:00;;;;;;;22.07;5.13;;;7.90;99.90;;;;;;5074367;28;20400;-71
2024/01/25 03:19:27;;;;;;;15.63;4.30;;;7.90;99.90;;;;;;5074512;28;20165;-71
2024/01/25 03:21:53;;;;;;;25.40;4.70;;;7.90;99.90;;;;;;5073962;28;20166;-71
2024/01/25 03:24:18;;;;;;;28.40;5.57;;;7.80;99.90;;;;;;5074267;28;20428;-72
2024/01/25 03:26:44;;;;;;;18.40;4.50;;;7.80;99.90;;;;;;5073691;28;20409;-72
2024/01/25 03:29:09;;;;;;;39.57;5.30;;;7.80;99.90;;;;;;5074352;28;20173;-72
2024/01/25 03:31:36;;;;;;;17.10;4.50;;;7.80;99.90;;;;;;5072994;28;20181;-70
2024/01/25 03:34:02;;;;;;;28.43;9.07;;;7.70;99.90;;;;;;5073985;28;20220;-70
2024/01/25 03:36:27;;;;;;;14.83;4.00;;;7.70;99.90;;;;;;5074057;28;20489;-70
2024/01/25 03:38:53;;;;;;;16.27;4.00;;;7.70;99.90;;;;;;5074109;28;20397;-70
2024/01/25 03:41:18;;;;;;;21.40;5.57;;;7.60;99.90;;;;;;5074106;28;20194;-71
2024/01/25 03:43:44;;;;;;;37.60;6.60;;;7.60;99.90;;;;;;5074007;28;20162;-72
2024/01/25 03:46:11;;;;;;;22.83;5.00;;;7.60;99.90;;;;;;5073703;28;20213;-70
2024/01/25 03:48:36;;;;;;;23.40;5.00;;;7.60;99.90;;;;;;5074001;28;20404;-71
2024/01/25 03:51:02;;;;;;;22.33;5.53;;;7.50;99.90;;;;;;5073953;28;20934;-72
2024/01/25 03:53:28;;;;;;;25.10;5.37;;;7.50;99.90;;;;;;5072400;28;20235;-71
2024/01/25 03:55:53;;;;;;;27.67;4.60;;;7.50;99.90;;;;;;5073661;28;20178;-71
2024/01/25 03:58:19;;;;;;;21.23;4.00;;;7.50;99.90;;;;;;5073610;28;20201;-71
2024/01/25 04:00:44;;;;;;;24.20;5.47;;;7.50;99.90;;;;;;5073739;28;20246;-72
2024/01/25 04:03:10;;;;;;;31.37;7.00;;;7.40;99.90;;;;;;5073622;28;20162;-72
2024/01/25 04:05:36;;;;;;;26.90;9.37;;;7.40;99.90;;;;;;5072913;28;20205;-72
2024/01/25 04:08:03;;;;;;;24.27;8.30;;;7.40;99.90;;;;;;5073383;28;20475;-72
2024/01/25 04:10:28;;;;;;;24.33;6.47;;;7.30;99.90;;;;;;5073421;28;20409;-70
2024/01/25 04:12:54;;;;;;;21.93;6.67;;;7.30;99.90;;;;;;5073447;28;20980;-72
2024/01/25 04:15:19;;;;;;;15.17;4.93;;;7.30;99.90;;;;;;5073425;28;20209;-72
2024/01/25 04:17:45;;;;;;;21.70;6.53;;;7.20;99.90;;;;;;5073143;28;20278;-72
2024/01/25 04:20:11;;;;;;;20.03;4.97;;;7.20;99.90;;;;;;5073330;28;20159;-72
2024/01/25 04:22:37;;;;;;;11.90;5.17;;;7.20;99.90;;;;;;5073080;28;20163;-72
2024/01/25 04:25:03;;;;;;;22.17;5.27;;;7.20;99.90;;;;;;5073203;28;20182;-72
2024/01/25 04:27:28;;;;;;;16.77;5.27;;;7.10;99.90;;;;;;5072985;28;20216;-71
2024/01/25 04:29:54;;;;;;;22.83;6.33;;;7.00;99.90;;;;;;5073442;28;20875;-71
2024/01/25 04:32:19;;;;;;;16.07;4.67;;;7.00;99.90;;;;;;5073051;28;20219;-72
2024/01/25 04:34:47;;;;;;;11.27;4.20;;;7.00;99.90;;;;;;5073105;28;20289;-72
2024/01/25 04:37:13;;;;;;;23.07;5.00;;;7.00;99.90;;;;;;5072109;28;20212;-71
2024/01/25 04:39:38;;;;;;;23.97;5.20;;;6.90;99.90;;;;;;5072624;28;20931;-72
2024/01/25 04:42:04;;;;;;;22.27;5.73;;;6.90;99.90;;;;;;5072847;28;20198;-72
2024/01/25 04:44:30;;;;;;;23.50;5.40;;;6.90;99.90;;;;;;5072828;28;20194;-72
2024/01/25 04:46:56;;;;;;;18.27;4.67;;;6.80;99.90;;;;;;5072536;28;20182;-72
2024/01/25 04:49:21;;;;;;;26.10;5.20;;;6.80;99.90;;;;;;5072781;28;20162;-72
2024/01/25 04:51:47;;;;;;;33.13;4.30;;;6.80;99.90;;;;;;5072971;28;20955;-72
2024/01/25 04:54:15;;;;;;;34.33;5.33;;;6.80;99.90;;;;;;5072579;28;20266;-71
2024/01/25 04:56:41;;;;;;;24.93;4.73;;;6.80;99.90;;;;;;5072518;28;20163;-71
2024/01/25 04:59:07;;;;;;;15.67;4.70;;;6.70;99.90;;;;;;5071382;28;20466;-71
2024/01/25 05:01:32;;;;;;;19.77;5.20;;;6.70;99.90;;;;;;5072617;28;20814;-71
2024/01/25 05:03:58;;;;;;;27.60;7.60;;;6.70;99.90;;;;;;5072446;28;20196;-72
2024/01/25 05:06:23;;;;;;;26.10;6.30;;;6.70;99.90;;;;;;5072691;28;20596;-71
2024/01/25 05:08:49;;;;;;;21.63;5.10;;;6.60;99.90;;;;;;5071254;28;20174;-70
2024/01/25 05:11:14;;;;;;;16.03;5.07;;;6.60;99.90;;;;;;5072691;28;20541;-71
2024/01/25 05:13:40;;;;;;;21.03;5.23;;;6.60;99.90;;;;;;5072275;28;20205;-70
2024/01/25 05:16:05;;;;;;;14.70;4.77;;;6.50;99.90;;;;;;5072074;28;20564;-71
2024/01/25 05:18:31;;;;;;;19.03;6.33;;;6.60;99.90;;;;;;5072198;28;20192;-72
2024/01/25 05:20:57;;;;;;;21.57;5.20;;;6.50;99.90;;;;;;5072151;28;20162;-72
2024/01/25 05:23:23;;;;;;;25.33;4.43;;;6.50;99.90;;;;;;5072157;28;20640;-72
2024/01/25 05:25:48;;;;;;;20.73;4.37;;;6.50;99.90;;;;;;5071949;28;20431;-71
2024/01/25 05:28:14;;;;;;;27.60;5.40;;;6.40;99.90;;;;;;5072080;28;20177;-71
2024/01/25 05:30:39;;;;;;;34.17;7.37;;;6.50;99.90;;;;;;5072144;28;20177;-71
2024/01/25 05:33:05;;;;;;;35.70;6.03;;;6.40;99.90;;;;;;5071956;28;20253;-72
2024/01/25 05:35:31;;;;;;;15.67;5.10;;;6.40;99.90;;;;;;5071981;28;20189;-72
2024/01/25 05:37:57;;;;;;;17.07;3.43;;;6.40;99.90;;;;;;5071733;28;20154;-72
2024/01/25 05:40:22;;;;;;;27.13;5.77;;;6.40;99.90;;;;;;5071999;28;20898;-71
2024/01/25 05:42:48;;;;;;;15.63;4.83;;;6.40;99.90;;;;;;5071984;28;20158;-71
2024/01/25 05:45:13;;;;;;;23.30;5.00;;;6.40;99.90;;;;;;5071907;28;20225;-72
2024/01/25 05:47:39;;;;;;;30.50;6.00;;;6.30;99.90;;;;;;5071684;28;20189;-71
2024/01/25 05:50:05;;;;;;;22.07;5.13;;;6.40;99.90;;;;;;5071676;28;20251;-71
2024/01/25 05:52:30;;;;;;;26.37;6.17;;;6.30;99.90;;;;;;5071809;28;20166;-71
2024/01/25 05:54:56;;;;;;;21.10;5.87;;;6.30;99.90;;;;;;5071674;28;20460;-72
2024/01/25 05:57:22;;;;;;;13.17;4.60;;;6.30;99.90;;;;;;5071562;28;20258;-71
2024/01/25 05:59:47;;;;;;;41.80;6.83;;;6.30;99.90;;;;;;5071790;28;20544;-72
2024/01/25 06:02:13;;;;;;;36.67;11.37;;;6.20;99.90;;;;;;5071736;28;20166;-71
2024/01/25 06:04:39;;;;;;;22.67;8.20;;;6.20;99.90;;;;;;5071653;28;20194;-72
2024/01/25 06:07:04;;;;;;;19.57;4.33;;;6.20;99.90;;;;;;5071406;28;20819;-71
2024/01/25 06:09:31;;;;;;;20.70;5.87;;;6.20;99.90;;;;;;5071755;28;20633;-72
2024/01/25 06:11:57;;;;;;;35.33;6.50;;;6.20;99.90;;;;;;5071783;28;20170;-72
2024/01/25 06:14:23;;;;;;;12.03;4.37;;;6.10;99.90;;;;;;5071538;28;20463;-72
2024/01/25 06:16:49;;;;;;;21.80;5.33;;;6.10;99.90;;;;;;5071407;28;20424;-72
2024/01/25 06:19:14;;;;;;;24.33;5.60;;;6.10;99.90;;;;;;5071661;28;20440;-72
2024/01/25 06:21:40;;;;;;;13.63;4.90;;;6.00;99.90;;;;;;5071654;28;20170;-72
2024/01/25 06:24:06;;;;;;;15.53;5.60;;;6.00;99.90;;;;;;5071474;28;20220;-72
2024/01/25 06:26:32;;;;;;;22.90;4.73;;;6.00;99.90;;;;;;5071393;28;20587;-72
2024/01/25 06:28:57;;;;;;;32.77;4.80;;;6.00;99.90;;;;;;5071791;28;20416;-72
2024/01/25 06:31:24;;;;;;;22.13;4.43;;;6.00;99.90;;;;;;5071469;28;20409;-71
2024/01/25 06:33:50;;;;;;;24.23;4.27;;;6.00;99.90;;;;;;5071313;28;20197;-72
2024/01/25 06:36:16;;;;;;;30.30;5.33;;;5.90;99.90;;;;;;5071016;28;20424;-72
2024/01/25 06:38:42;;;;;;;24.57;6.23;;;5.80;99.90;;;;;;5071484;28;20907;-71
2024/01/25 06:41:09;;;;;;;26.87;5.47;;;5.90;99.90;;;;;;5071414;28;20435;-72
2024/01/25 06:43:34;;;;;;;24.30;5.50;;;5.90;99.90;;;;;;5071408;28;20174;-71
2024/01/25 06:46:00;;;;;;;15.03;5.30;;;5.90;99.90;;;;;;5071100;28;20428;-71
2024/01/25 06:48:25;;;;;;;31.27;6.47;;;5.90;99.90;;;;;;5069904;28;20671;-72
2024/01/25 06:50:51;;;;;;;26.57;6.17;;;5.80;99.90;;;;;;5071311;28;20660;-72
2024/01/25 06:53:17;;;;;;;24.77;6.10;;;5.80;99.90;;;;;;5071088;28;20190;-72
2024/01/25 06:55:42;;;;;;;27.60;5.27;;;5.80;99.90;;;;;;5071082;28;20662;-72
2024/01/25 06:58:08;;;;;;;22.70;5.57;;;5.70;99.90;;;;;;5071174;28;20407;-72
2024/01/25 07:00:34;;;;;;;17.33;5.37;;;5.80;99.90;;;;;;5071246;28;20166;-72
2024/01/25 07:03:00;;;;;;;18.60;5.07;;;5.70;99.90;;;;;;5073464;28;20170;-72
2024/01/25 07:05:26;;;;;;;28.40;5.97;;;5.70;99.90;;;;;;5074646;28;20424;-72
2024/01/25 07:07:52;;;;;;;21.97;6.07;;;5.70;99.90;;;;;;5074491;28;20227;-72
2024/01/25 07:10:17;;;;;;;32.87;5.97;;;5.70;99.90;;;;;;5074699;28;20400;-72
2024/01/25 07:12:43;;;;;;;32.23;6.27;;;5.70;99.90;;;;;;5074672;28;20170;-72
2024/01/25 07:15:09;;;;;;;21.97;5.97;;;5.70;99.90;;;;;;5074511;28;20201;-72
2024/01/25 07:17:34;;;;;;;20.37;5.30;;;5.70;99.90;;;;;;5073019;28;20170;-72
2024/01/25 07:19:59;;;;;;;32.70;5.80;;;5.70;99.90;;;;;;5074190;28;20534;-69
2024/01/25 07:22:25;;;;;;;23.77;6.40;;;5.80;99.90;;;;;;5074273;28;20177;-69
2024/01/25 07:24:50;;;;;;;27.73;5.57;;;5.80;99.90;;;;;;5074402;28;20205;-69
2024/01/25 07:27:16;;;;;;;35.10;7.80;;;5.90;99.90;;;;;;5074135;28;20171;-70
2024/01/25 07:29:44;;;;;;;33.40;7.60;;;5.90;99.90;;;;;;5074675;28;20174;-70
2024/01/25 07:32:10;;;;;;;32.03;6.30;;;6.00;99.90;;;;;;5074252;28;20174;-70
2024/01/25 07:34:36;;;;;;;29.63;7.37;;;6.00;99.90;;;;;;5074061;28;20513;-70
2024/01/25 07:37:03;;;;;;;14.13;6.97;;;6.10;99.90;;;;;;5074138;28;20173;-70
2024/01/25 07:39:28;;;;;;;33.23;6.60;;;6.20;99.90;;;;;;5074155;28;20212;-70
2024/01/25 07:41:54;;;;;;;17.50;6.57;;;6.20;99.90;;;;;;5074162;28;20404;-69
2024/01/25 07:44:19;;;;;;;37.93;8.20;;;6.30;99.90;;;;;;5074055;28;20240;-67
2024/01/25 07:46:45;;;;;;;46.20;8.80;;;6.30;99.90;;;;;;5073666;28;20185;-67
2024/01/25 07:49:10;;;;;;;41.57;8.17;;;6.30;99.90;;;;;;5073963;28;20608;-67
2024/01/25 07:51:36;;;;;;;23.83;7.13;;;6.30;99.90;;;;;;5073921;28;20257;-68
2024/01/25 07:54:02;;;;;;;22.50;6.77;;;6.30;99.90;;;;;;5073638;28;20591;-67
2024/01/25 07:56:27;;;;;;;42.67;9.00;;;6.40;99.90;;;;;;5073680;28;20190;-67
2024/01/25 07:58:53;;;;;;;24.70;7.17;;;6.50;99.90;;;;;;5073760;28;20432;-67
2024/01/25 08:01:19;;;;;;;36.63;8.53;;;6.60;99.90;;;;;;5073624;28;20169;-67
2024/01/25 08:03:45;;;;;;;28.40;7.43;;;6.70;99.90;;;;;;5073656;28;20670;-67
2024/01/25 08:06:11;;;;;;;36.23;7.87;;;6.80;99.90;;;;;;5073517;28;20435;-67
2024/01/25 08:08:36;;;;;;;40.17;7.53;;;7.00;99.90;;;;;;5073571;28;20174;-67
2024/01/25 08:11:04;;;;;;;20.53;8.97;;;7.20;99.90;;;;;;5073563;28;20234;-67
2024/01/25 08:13:29;;;;;;;27.27;6.53;;;7.40;99.90;;;;;;5073375;28;20186;-66
2024/01/25 08:15:56;;;;;;;30.67;7.77;;;7.60;99.90;;;;;;5073117;28;20432;-66
2024/01/25 08:18:22;;;;;;;26.97;9.93;;;8.10;99.90;;;;;;5073245;28;20245;-66
2024/01/25 08:20:49;;;;;;;27.07;7.90;;;8.60;99.90;;;;;;5073390;28;20914;-66
2024/01/25 08:23:14;;;;;;;29.50;8.73;;;9.30;99.90;;;;;;5073245;28;20399;-67
2024/01/25 08:25:40;;;;;;;34.97;8.97;;;10.10;99.90;;;;;;5073030;28;20424;-67
2024/01/25 08:28:06;;;;;;;37.37;10.17;;;10.60;99.90;;;;;;5073114;28;20253;-67
2024/01/25 08:30:32;;;;;;;29.67;9.77;;;11.30;99.90;;;;;;5073069;28;20400;-66
2024/01/25 08:32:57;;;;;;;31.93;8.07;;;12.00;99.90;;;;;;5072975;28;20165;-68
2024/01/25 08:35:23;;;;;;;28.57;7.60;;;12.80;99.90;;;;;;5072837;28;20830;-66
2024/01/25 08:37:49;;;;;;;16.80;7.67;;;12.80;99.90;;;;;;5072788;28;20698;-66
2024/01/25 08:40:15;;;;;;;22.90;6.50;;;12.80;99.90;;;;;;5072957;28;20241;-68
2024/01/25 08:42:40;;;;;;;30.63;7.37;;;12.80;99.90;;;;;;5072851;28;20807;-66
2024/01/25 08:45:08;;;;;;;17.43;7.20;;;13.00;99.90;;;;;;5072789;28;20195;-67
2024/01/25 08:47:35;;;;;;;25.87;7.33;;;13.10;99.90;;;;;;5072528;28;20173;-67
2024/01/25 08:50:00;;;;;;;17.23;7.20;;;12.90;99.90;;;;;;5072695;28;20462;-67
2024/01/25 08:52:26;;;;;;;22.43;6.47;;;13.20;99.90;;;;;;5072646;28;20405;-67
2024/01/25 08:54:51;;;;;;;21.47;7.77;;;13.30;99.90;;;;;;5072482;28;20202;-68
2024/01/25 08:57:17;;;;;;;20.97;9.13;;;13.50;99.90;;;;;;5072440;28;20159;-67
2024/01/25 08:59:43;;;;;;;14.20;7.60;;;13.50;99.90;;;;;;5072624;28;20166;-68
2024/01/25 09:02:08;;;;;;;25.23;7.63;;;13.60;99.90;;;;;;5072517;28;20190;-67
2024/01/25 09:04:34;;;;;;;20.53;6.53;;;13.40;99.90;;;;;;5072422;28;20251;-67
2024/01/25 09:07:00;;;;;;;33.83;7.93;;;13.10;99.90;;;;;;5071994;28;20158;-67
2024/01/25 09:09:25;;;;;;;26.90;8.30;;;13.20;99.90;;;;;;5072410;28;20177;-67
2024/01/25 09:11:51;;;;;;;23.97;10.17;;;13.00;99.90;;;;;;5072435;28;20162;-68
2024/01/25 09:14:16;;;;;;;20.83;7.53;;;13.00;99.90;;;;;;5072095;28;20197;-67
2024/01/25 09:16:42;;;;;;;13.03;7.07;;;13.10;99.90;;;;;;5071947;28;20158;-66
2024/01/25 09:19:08;;;;;;;26.40;8.37;;;13.00;99.90;;;;;;5071987;28;20162;-67
2024/01/25 09:21:33;;;;;;;17.97;7.07;;;13.40;99.90;;;;;;5072179;28;20404;-67
2024/01/25 09:23:59;;;;;;;24.87;7.43;;;13.80;99.90;;;;;;5071623;28;20216;-67
2024/01/25 09:26:25;;;;;;;20.17;7.50;;;14.10;99.90;;;;;;5071849;28;20170;-67
2024/01/25 09:28:50;;;;;;;21.70;7.63;;;14.50;99.90;;;;;;5072070;28;20175;-67
2024/01/25 09:31:16;;;;;;;18.13;7.37;;;14.80;99.90;;;;;;5072029;28;20170;-66
2024/01/25 09:33:41;;;;;;;17.03;7.13;;;15.20;99.90;;;;;;5071938;28;20186;-67
2024/01/25 09:36:07;;;;;;;21.23;8.10;;;15.70;99.90;;;;;;5071813;28;20182;-67
2024/01/25 09:38:33;;;;;;;14.70;6.67;;;15.30;99.90;;;;;;5071925;28;20167;-68
2024/01/25 09:40:59;;;;;;;19.93;8.00;;;14.90;99.90;;;;;;5071932;28;20162;-66
2024/01/25 09:43:25;;;;;;;17.47;7.60;;;14.60;99.90;;;;;;5072344;28;20392;-67
2024/01/25 09:45:56;;;;;;;20.40;7.17;;;14.60;99.90;;;;;;5071625;28;20957;-66
2024/01/25 09:48:22;;;;;;;19.73;7.30;;;14.80;99.90;;;;;;5071880;28;20169;-67
2024/01/25 09:50:48;;;;;;;21.90;8.77;;;14.90;99.90;;;;;;5071750;28;20405;-65
2024/01/25 09:53:21;;;;;;;24.83;8.10;;;15.10;99.90;;;;;;5071438;28;20416;-66
2024/01/25 09:56:03;;;;;;;19.70;7.43;;;15.50;99.90;;;;;;5071984;28;20429;-67
2024/01/25 09:58:35;;;;;;;17.20;7.63;;;15.50;99.90;;;;;;5071654;28;20404;-68
2024/01/25 10:01:01;;;;;;;27.20;8.60;;;15.60;99.90;;;;;;5071960;28;20428;-67
2024/01/25 10:03:27;;;;;;;20.00;7.17;;;15.50;99.90;;;;;;5072102;28;20398;-67
2024/01/25 10:05:53;;;;;;;22.60;8.83;;;15.30;99.90;;;;;;5071449;28;20417;-66
2024/01/25 10:08:20;;;;;;;17.50;6.70;;;15.50;99.90;;;;;;5071643;28;20166;-67
2024/01/25 10:10:46;;;;;;;18.40;6.80;;;15.60;99.90;;;;;;5071709;28;20194;-66
2024/01/25 10:13:13;;;;;;;17.30;6.73;;;15.90;99.90;;;;;;5071562;28;20443;-67
2024/01/25 10:15:41;;;;;;;28.27;8.33;;;16.50;99.90;;;;;;5071444;28;20224;-68
2024/01/25 10:18:12;;;;;;;24.47;7.40;;;17.30;99.90;;;;;;5071454;28;20419;-68
2024/01/25 10:20:44;;;;;;;15.20;7.60;;;18.00;99.90;;;;;;5071427;28;20480;-66
2024/01/25 10:23:10;;;;;;;22.43;9.03;;;18.50;94.40;;;;;;5071352;28;20432;-65
2024/01/25 10:25:37;;;;;;;17.23;6.53;;;18.50;91.10;;;;;;5071336;28;20832;-66
2024/01/25 10:28:07;;;;;;;16.80;7.43;;;18.80;90.00;;;;;;5071239;28;20162;-66
2024/01/25 10:30:34;;;;;;;20.07;7.80;;;18.30;84.50;;;;;;5071544;28;20436;-66
2024/01/25 10:33:00;;;;;;;23.17;8.63;;;18.20;83.50;;;;;;5071358;28;20548;-67
2024/01/25 10:35:27;;;;;;;14.80;7.37;;;18.90;86.40;;;;;;5071296;28;20545;-67
2024/01/25 10:37:53;;;;;;;21.43;8.10;;;20.10;87.20;;;;;;5074951;28;20927;-67
2024/01/25 10:40:20;;;;;;;17.20;6.80;;;21.10;77.60;;;;;;5075259;28;20759;-67
2024/01/25 10:42:46;;;;;;;25.80;7.57;;;21.20;66.60;;;;;;5075448;28;20401;-67
2024/01/25 10:45:12;;;;;;;19.90;7.53;;;21.60;64.30;;;;;;5075192;28;20424;-67
2024/01/25 10:47:40;;;;;;;19.37;8.60;;;22.20;66.20;;;;;;5075360;28;20896;-67
2024/01/25 10:50:09;;;;;;;15.57;6.77;;;22.30;59.60;;;;;;5075032;28;20976;-67
2024/01/25 10:52:35;;;;;;;26.60;7.63;;;22.20;58.00;;;;;;5074924;28;20822;-67
2024/01/25 10:55:03;;;;;;;19.17;7.80;;;21.70;56.60;;;;;;5074824;28;20542;-67
2024/01/25 10:57:39;;;;;;;21.33;7.30;;;22.00;57.80;;;;;;5074640;28;20441;-67
2024/01/25 11:00:10;;;;;;;25.10;10.10;;;22.10;55.10;;;;;;5074776;28;20602;-68
2024/01/25 11:02:36;;;;;;;35.97;8.77;;;22.10;54.10;;;;;;5074730;28;20403;-68
2024/01/25 11:05:05;;;;;;;22.70;7.50;;;21.50;54.30;;;;;;5074953;28;20961;-68
2024/01/25 11:07:44;;;;;;;22.37;6.80;;;21.20;55.00;;;;;;5074466;28;20461;-68
2024/01/25 11:10:28;;;;;;;19.00;8.57;;;20.80;55.30;;;;;;5074738;28;20401;-67
2024/01/25 11:12:59;;;;;;;19.27;7.13;;;20.70;56.40;;;;;;5074561;28;20407;-67
2024/01/25 11:15:35;;;;;;;17.77;6.67;;;21.20;57.10;;;;;;5074405;28;20505;-67
2024/01/25 11:18:08;;;;;;;23.33;10.47;;;21.30;56.50;;;;;;5074337;28;20400;-67
2024/01/25 11:20:34;;;;;;;15.53;7.33;;;20.60;54.90;;;;;;5074960;28;20510;-67
2024/01/25 11:23:04;;;;;;;16.07;8.17;;;20.90;57.00;;;;;;5074435;28;20432;-67
2024/01/25 11:25:32;;;;;;;20.23;8.07;;;21.00;56.20;;;;;;5074292;28;20799;-67
2024/01/25 11:28:00;;;;;;;20.00;7.30;;;21.10;56.00;;;;;;5072760;28;20408;-68
2024/01/25 11:30:26;;;;;;;17.53;8.80;;;21.80;56.80;;;;;;5074584;28;20790;-67
2024/01/25 11:32:52;;;;;;;19.70;7.60;;;22.50;54.50;;;;;;5074266;28;20903;-67
2024/01/25 11:35:17;;;;;;;18.10;7.43;;;23.00;53.40;;;;;;5074135;28;20459;-67
2024/01/25 11:37:45;;;;;;;26.10;8.50;;;23.10;51.10;;;;;;5073956;28;20609;-67
2024/01/25 11:40:12;;;;;;;18.03;7.10;;;23.00;50.40;;;;;;5074091;28;20194;-68
2024/01/25 11:42:38;;;;;;;18.87;6.70;;;23.50;51.60;;;;;;5074058;28;20409;-67
2024/01/25 11:45:07;;;;;;;20.43;7.03;;;24.30;52.50;;;;;;5074283;28;20432;-67
2024/01/25 11:47:33;;;;;;;15.90;7.33;;;24.80;49.50;;;;;;5073461;28;20224;-67
2024/01/25 11:49:58;;;;;;;22.67;9.33;;;24.80;48.70;;;;;;5074010;28;20416;-67
2024/01/25 11:52:26;;;;;;;21.10;6.97;;;25.00;48.20;;;;;;5073898;28;20178;-68
2024/01/25 11:54:51;;;;;;;15.23;7.37;;;25.50;48.10;;;;;;5073663;28;20209;-68
2024/01/25 11:57:18;;;;;;;25.20;6.40;;;25.90;47.50;;;;;;5073498;28;20400;-67
2024/01/25 11:59:45;;;;;;;19.93;6.87;;;25.30;44.00;;;;;;5073774;28;20645;-67
2024/01/25 12:02:13;;;;;;;13.73;5.20;;;25.10;44.70;;;;;;5073571;28;20419;-67
2024/01/25 12:04:39;;;;;;;13.13;7.00;;;24.80;45.10;;;;;;5073625;28;21002;-66
2024/01/25 12:07:05;;;;;;;14.13;6.43;;;24.40;44.90;;;;;;5073335;28;20579;-67
2024/01/25 12:09:31;;;;;;;16.00;6.17;;;24.30;44.60;;;;;;5073704;28;20415;-66
2024/01/25 12:11:56;;;;;;;8.67;4.73;;;24.70;45.80;;;;;;5073475;28;20408;-68
2024/01/25 12:14:24;;;;;;;14.67;5.17;;;24.90;45.40;;;;;;5073417;28;20260;-66
2024/01/25 12:16:50;;;;;;;15.47;5.40;;;25.10;45.40;;;;;;5073224;28;20162;-66
2024/01/25 12:19:16;;;;;;;18.00;6.23;;;25.20;45.00;;;;;;5073401;28;20458;-66
2024/01/25 12:21:44;;;;;;;12.67;6.10;;;25.40;45.10;;;;;;5073254;28;20166;-66
2024/01/25 12:24:10;;;;;;;19.37;5.47;;;25.80;43.90;;;;;;5073368;28;20249;-67
2024/01/25 12:26:36;;;;;;;13.07;5.40;;;26.10;43.80;;;;;;5072936;28;20491;-67
2024/01/25 12:29:03;;;;;;;13.90;6.27;;;26.70;44.20;;;;;;5073168;28;20173;-66
2024/01/25 12:31:28;;;;;;;15.37;5.70;;;27.00;42.50;;;;;;5073127;28;20409;-67
2024/01/25 12:33:54;;;;;;;17.37;5.97;;;27.10;42.10;;;;;;5072984;28;21035;-67
2024/01/25 12:36:19;;;;;;;9.30;4.97;;;26.70;41.30;;;;;;5072656;28;20269;-67